createdAt,value
2022-12-11T00:00:42.842Z,84.12
2022-12-11T00:01:42.886Z,84.22
2022-12-11T00:02:42.848Z,84.22
2022-12-11T00:03:42.867Z,84.33
2022-12-11T00:04:42.788Z,84.54
2022-12-11T00:05:42.808Z,84.44
2022-12-11T00:06:42.767Z,84.12
2022-12-11T00:07:42.837Z,83.91
2022-12-11T00:08:42.789Z,84.01
2022-12-11T00:09:42.735Z,84.01
2022-12-11T00:10:42.717Z,83.91
2022-12-11T00:11:42.718Z,83.81
2022-12-11T00:12:42.697Z,83.70
2022-12-11T00:13:42.698Z,83.81
2022-12-11T00:14:42.767Z,83.49
2022-12-11T00:15:42.674Z,83.39
2022-12-11T00:16:42.715Z,83.49
2022-12-11T00:17:42.647Z,83.59
2022-12-11T00:18:42.655Z,83.70
2022-12-11T00:19:42.646Z,83.81
2022-12-11T00:20:42.586Z,83.95
2022-12-11T00:21:42.585Z,83.95
2022-12-11T00:22:42.557Z,84.27
2022-12-11T00:23:42.565Z,84.58
2022-12-11T00:24:42.544Z,84.47
2022-12-11T00:25:42.526Z,84.27
2022-12-11T00:26:42.506Z,84.05
2022-12-11T00:27:42.506Z,84.12
2022-12-11T00:28:42.504Z,84.33
2022-12-11T00:29:42.475Z,84.44
2022-12-11T00:30:42.472Z,84.44
2022-12-11T00:31:42.482Z,84.22
2022-12-11T00:32:42.453Z,84.27
2022-12-11T00:33:42.467Z,84.44
2022-12-11T00:34:42.406Z,84.54
2022-12-11T00:35:42.395Z,84.44
2022-12-11T00:36:42.399Z,84.54
2022-12-11T00:37:42.485Z,84.54
2022-12-11T00:38:42.414Z,84.54
2022-12-11T00:39:42.357Z,84.85
2022-12-11T00:40:42.363Z,84.85
2022-12-11T00:41:42.348Z,84.96
2022-12-11T00:42:42.403Z,84.96
2022-12-11T00:43:42.334Z,84.75
2022-12-11T00:44:42.314Z,84.64
2022-12-11T00:45:42.379Z,84.64
2022-12-11T00:46:42.303Z,84.44
2022-12-11T00:47:42.265Z,84.44
2022-12-11T00:48:42.295Z,84.12
2022-12-11T00:49:46.558Z,83.81
2022-12-11T00:50:43.193Z,83.70
2022-12-11T00:51:42.263Z,83.91
2022-12-11T00:52:42.203Z,83.81
2022-12-11T00:53:42.183Z,83.59
2022-12-11T00:54:42.184Z,83.59
2022-12-11T00:55:42.143Z,83.59
2022-12-11T00:56:42.151Z,83.49
2022-12-11T00:57:42.113Z,83.56
2022-12-11T00:58:42.113Z,83.56
2022-12-11T00:59:42.112Z,83.45
2022-12-11T01:00:42.116Z,83.25
2022-12-11T01:01:42.114Z,83.03
2022-12-11T01:02:42.111Z,82.93
2022-12-11T01:03:42.073Z,82.72
2022-12-11T01:04:42.027Z,82.40
2022-12-11T01:05:42.010Z,82.30
2022-12-11T01:06:42.004Z,82.62
2022-12-11T01:07:41.992Z,83.18
2022-12-11T01:08:41.989Z,83.39
2022-12-11T01:09:41.963Z,83.49
2022-12-11T01:10:42.020Z,83.59
2022-12-11T01:11:41.944Z,83.56
2022-12-11T01:12:41.930Z,83.35
2022-12-11T01:13:41.954Z,83.45
2022-12-11T01:14:41.903Z,83.35
2022-12-11T01:15:42.178Z,83.14
2022-12-11T01:16:41.959Z,82.62
2022-12-11T01:17:41.861Z,82.30
2022-12-11T01:18:41.872Z,82.40
2022-12-11T01:19:41.852Z,82.72
2022-12-11T01:20:41.900Z,82.97
2022-12-11T01:21:41.811Z,82.97
2022-12-11T01:22:41.801Z,83.18
2022-12-11T01:23:41.811Z,83.59
2022-12-11T01:24:41.770Z,84.12
2022-12-11T01:25:41.781Z,84.33
2022-12-11T01:26:41.771Z,84.54
2022-12-11T01:27:41.750Z,84.64
2022-12-11T01:28:41.808Z,84.75
2022-12-11T01:29:41.769Z,84.64
2022-12-11T01:30:41.847Z,84.64
2022-12-11T01:31:41.699Z,84.75
2022-12-11T01:32:41.688Z,84.85
2022-12-11T01:33:41.740Z,84.75
2022-12-11T01:34:41.740Z,84.54
2022-12-11T01:35:41.737Z,84.54
2022-12-11T01:36:41.677Z,84.75
2022-12-11T01:37:41.679Z,84.54
2022-12-11T01:38:41.650Z,84.33
2022-12-11T01:39:41.582Z,84.44
2022-12-11T01:40:41.574Z,84.75
2022-12-11T01:41:41.567Z,84.96
2022-12-11T01:42:41.552Z,85.27
2022-12-11T01:43:41.569Z,85.06
2022-12-11T01:44:41.539Z,84.64
2022-12-11T01:45:41.569Z,84.54
2022-12-11T01:46:41.488Z,84.64
2022-12-11T01:47:41.478Z,84.75
2022-12-11T01:48:42.455Z,84.44
2022-12-11T01:49:41.450Z,84.01
2022-12-11T01:50:41.438Z,83.91
2022-12-11T01:51:41.442Z,84.01
2022-12-11T01:52:41.411Z,84.12
2022-12-11T01:53:41.418Z,84.12
2022-12-11T01:54:41.389Z,84.22
2022-12-11T01:55:41.381Z,84.54
2022-12-11T01:56:41.358Z,84.96
2022-12-11T01:57:41.348Z,85.17
2022-12-11T01:58:41.351Z,85.17
2022-12-11T01:59:41.331Z,85.17
2022-12-11T02:00:41.308Z,85.27
2022-12-11T02:01:41.339Z,85.02
2022-12-11T02:02:41.338Z,84.81
2022-12-11T02:03:41.289Z,84.81
2022-12-11T02:04:41.262Z,84.71
2022-12-11T02:05:41.260Z,84.81
2022-12-11T02:06:41.237Z,84.92
2022-12-11T02:07:41.227Z,84.92
2022-12-11T02:08:41.237Z,84.92
2022-12-11T02:09:41.199Z,84.81
2022-12-11T02:10:41.178Z,84.81
2022-12-11T02:11:41.178Z,84.71
2022-12-11T02:12:41.159Z,84.61
2022-12-11T02:13:41.168Z,84.61
2022-12-11T02:14:41.128Z,84.39
2022-12-11T02:15:41.130Z,84.08
2022-12-11T02:16:41.155Z,83.87
2022-12-11T02:17:41.106Z,84.08
2022-12-11T02:18:41.076Z,84.29
2022-12-11T02:19:41.094Z,84.39
2022-12-11T02:20:41.057Z,84.50
2022-12-11T02:21:41.048Z,84.50
2022-12-11T02:22:41.027Z,84.61
2022-12-11T02:23:41.017Z,84.71
2022-12-11T02:24:41.015Z,84.50
2022-12-11T02:25:40.996Z,84.29
2022-12-11T02:26:40.976Z,84.39
2022-12-11T02:27:40.954Z,84.61
2022-12-11T02:28:40.948Z,84.50
2022-12-11T02:29:40.956Z,84.50
2022-12-11T02:30:40.927Z,84.39
2022-12-11T02:31:40.953Z,84.61
2022-12-11T02:32:40.945Z,84.71
2022-12-11T02:33:40.886Z,84.81
2022-12-11T02:34:40.913Z,84.92
2022-12-11T02:35:40.865Z,85.13
2022-12-11T02:36:40.863Z,85.13
2022-12-11T02:37:40.834Z,85.24
2022-12-11T02:38:40.885Z,85.24
2022-12-11T02:39:40.824Z,85.34
2022-12-11T02:40:40.798Z,85.34
2022-12-11T02:41:40.793Z,85.44
2022-12-11T02:42:40.761Z,85.55
2022-12-11T02:43:40.753Z,85.65
2022-12-11T02:44:40.753Z,85.65
2022-12-11T02:45:40.760Z,85.65
2022-12-11T02:46:40.713Z,85.55
2022-12-11T02:47:40.703Z,85.55
2022-12-11T02:48:40.682Z,85.44
2022-12-11T02:49:40.701Z,85.55
2022-12-11T02:50:40.662Z,85.65
2022-12-11T02:51:40.659Z,85.86
2022-12-11T02:52:40.663Z,85.86
2022-12-11T02:53:40.632Z,85.75
2022-12-11T02:54:40.811Z,85.55
2022-12-11T02:55:40.735Z,85.44
2022-12-11T02:56:40.594Z,85.13
2022-12-11T02:57:40.583Z,84.81
2022-12-11T02:58:40.563Z,84.61
2022-12-11T02:59:40.565Z,84.36
2022-12-11T03:00:40.547Z,84.19
2022-12-11T03:01:40.572Z,84.19
2022-12-11T03:02:40.565Z,84.50
2022-12-11T03:03:40.494Z,84.71
2022-12-11T03:04:40.504Z,84.81
2022-12-11T03:05:40.479Z,85.02
2022-12-11T03:06:40.471Z,85.34
2022-12-11T03:07:40.441Z,85.55
2022-12-11T03:08:40.430Z,85.65
2022-12-11T03:09:40.441Z,85.75
2022-12-11T03:10:40.441Z,85.65
2022-12-11T03:11:40.398Z,85.65
2022-12-11T03:12:40.384Z,85.75
2022-12-11T03:13:40.358Z,85.86
2022-12-11T03:14:40.349Z,85.82
2022-12-11T03:15:40.369Z,85.61
2022-12-11T03:16:40.361Z,85.55
2022-12-11T03:17:40.327Z,85.55
2022-12-11T03:18:40.300Z,85.55
2022-12-11T03:19:40.305Z,85.55
2022-12-11T03:20:40.299Z,85.44
2022-12-11T03:21:40.279Z,85.55
2022-12-11T03:22:40.303Z,85.55
2022-12-11T03:23:40.241Z,85.75
2022-12-11T03:24:40.231Z,85.75
2022-12-11T03:25:40.244Z,85.75
2022-12-11T03:26:40.229Z,85.86
2022-12-11T03:27:40.204Z,85.97
2022-12-11T03:28:40.180Z,85.93
2022-12-11T03:29:40.159Z,85.93
2022-12-11T03:30:40.216Z,85.82
2022-12-11T03:31:40.155Z,85.72
2022-12-11T03:32:40.123Z,85.61
2022-12-11T03:33:40.118Z,85.72
2022-12-11T03:34:40.106Z,85.82
2022-12-11T03:35:40.121Z,85.93
2022-12-11T03:36:40.083Z,85.93
2022-12-11T03:37:40.069Z,85.82
2022-12-11T03:38:40.049Z,85.93
2022-12-11T03:39:40.037Z,85.93
2022-12-11T03:40:40.039Z,86.14
2022-12-11T03:41:40.038Z,86.14
2022-12-11T03:42:39.999Z,86.24
2022-12-11T03:43:39.989Z,86.24
2022-12-11T03:44:39.975Z,86.24
2022-12-11T03:45:39.989Z,86.14
2022-12-11T03:46:39.940Z,85.93
2022-12-11T03:47:39.936Z,85.93
2022-12-11T03:48:39.926Z,86.14
2022-12-11T03:49:39.905Z,86.18
2022-12-11T03:50:39.907Z,86.18
2022-12-11T03:51:39.886Z,86.28
2022-12-11T03:52:45.569Z,86.49
2022-12-11T03:53:40.856Z,86.70
2022-12-11T03:54:39.837Z,86.60
2022-12-11T03:55:39.855Z,86.70
2022-12-11T03:56:39.808Z,86.91
2022-12-11T03:57:39.821Z,87.12
2022-12-11T03:58:39.778Z,87.01
2022-12-11T03:59:39.764Z,86.91
2022-12-11T04:00:39.777Z,87.01
2022-12-11T04:01:39.779Z,87.12
2022-12-11T04:02:39.737Z,87.12
2022-12-11T04:03:39.725Z,87.33
2022-12-11T04:04:39.764Z,87.23
2022-12-11T04:05:39.704Z,87.08
2022-12-11T04:06:39.741Z,87.01
2022-12-11T04:07:39.675Z,86.77
2022-12-11T04:08:39.658Z,86.70
2022-12-11T04:09:39.655Z,86.70
2022-12-11T04:10:39.627Z,86.60
2022-12-11T04:11:39.669Z,86.49
2022-12-11T04:12:39.605Z,86.60
2022-12-11T04:13:39.606Z,86.60
2022-12-11T04:14:39.576Z,86.70
2022-12-11T04:15:39.650Z,86.70
2022-12-11T04:16:39.575Z,86.70
2022-12-11T04:17:39.556Z,86.80
2022-12-11T04:18:39.536Z,86.80
2022-12-11T04:19:39.531Z,86.80
2022-12-11T04:20:39.511Z,86.80
2022-12-11T04:21:40.018Z,86.91
2022-12-11T04:22:39.482Z,86.80
2022-12-11T04:23:39.474Z,86.91
2022-12-11T04:24:39.464Z,87.12
2022-12-11T04:25:39.444Z,87.43
2022-12-11T04:26:39.447Z,87.54
2022-12-11T04:27:39.422Z,87.54
2022-12-11T04:28:39.405Z,87.33
2022-12-11T04:29:39.395Z,87.12
2022-12-11T04:30:39.375Z,87.12
2022-12-11T04:31:39.395Z,87.12
2022-12-11T04:32:39.344Z,87.23
2022-12-11T04:33:39.343Z,87.33
2022-12-11T04:34:39.323Z,87.33
2022-12-11T04:35:39.314Z,87.33
2022-12-11T04:36:39.323Z,87.23
2022-12-11T04:37:39.293Z,87.33
2022-12-11T04:38:39.270Z,87.23
2022-12-11T04:39:39.264Z,87.12
2022-12-11T04:40:39.250Z,87.23
2022-12-11T04:41:39.261Z,87.33
2022-12-11T04:42:39.220Z,87.39
2022-12-11T04:43:39.228Z,87.33
2022-12-11T04:44:39.202Z,87.43
2022-12-11T04:45:39.183Z,87.33
2022-12-11T04:46:39.226Z,87.43
2022-12-11T04:47:39.166Z,87.54
2022-12-11T04:48:39.157Z,87.54
2022-12-11T04:49:39.140Z,87.54
2022-12-11T04:50:39.133Z,87.54
2022-12-11T04:51:39.143Z,87.43
2022-12-11T04:52:39.092Z,87.43
2022-12-11T04:53:39.083Z,87.50
2022-12-11T04:54:39.077Z,87.50
2022-12-11T04:55:39.063Z,87.60
2022-12-11T04:56:39.063Z,87.50
2022-12-11T04:57:39.036Z,87.39
2022-12-11T04:58:39.026Z,87.50
2022-12-11T04:59:39.015Z,87.50
2022-12-11T05:00:39.002Z,87.29
2022-12-11T05:01:39.080Z,87.18
2022-12-11T05:02:39.038Z,87.29
2022-12-11T05:03:38.975Z,87.29
2022-12-11T05:04:38.940Z,87.29
2022-12-11T05:05:38.932Z,87.50
2022-12-11T05:06:38.941Z,87.50
2022-12-11T05:07:38.901Z,87.39
2022-12-11T05:08:38.893Z,87.39
2022-12-11T05:09:38.882Z,87.29
2022-12-11T05:10:38.864Z,87.08
2022-12-11T05:11:38.871Z,87.23
2022-12-11T05:12:38.860Z,87.43
2022-12-11T05:13:38.888Z,87.54
2022-12-11T05:14:38.814Z,87.64
2022-12-11T05:15:38.943Z,87.74
2022-12-11T05:16:38.798Z,87.85
2022-12-11T05:17:38.790Z,87.74
2022-12-11T05:18:38.761Z,87.71
2022-12-11T05:19:38.750Z,87.60
2022-12-11T05:20:38.740Z,87.50
2022-12-11T05:21:38.730Z,87.50
2022-12-11T05:22:38.730Z,87.39
2022-12-11T05:23:38.703Z,87.39
2022-12-11T05:24:38.686Z,87.39
2022-12-11T05:25:38.686Z,87.39
2022-12-11T05:26:38.660Z,87.39
2022-12-11T05:27:38.680Z,87.29
2022-12-11T05:28:38.629Z,87.39
2022-12-11T05:29:38.636Z,87.60
2022-12-11T05:30:38.609Z,87.81
2022-12-11T05:31:38.665Z,87.92
2022-12-11T05:32:38.608Z,87.92
2022-12-11T05:33:38.568Z,87.81
2022-12-11T05:34:38.550Z,87.60
2022-12-11T05:35:38.541Z,87.39
2022-12-11T05:36:38.533Z,87.29
2022-12-11T05:37:38.527Z,87.29
2022-12-11T05:38:38.517Z,87.39
2022-12-11T05:39:38.509Z,87.60
2022-12-11T05:40:38.480Z,87.71
2022-12-11T05:41:38.491Z,87.92
2022-12-11T05:42:38.449Z,87.92
2022-12-11T05:43:38.465Z,87.92
2022-12-11T05:44:38.426Z,87.81
2022-12-11T05:45:38.428Z,87.71
2022-12-11T05:46:38.454Z,87.71
2022-12-11T05:47:38.395Z,87.71
2022-12-11T05:48:38.388Z,87.71
2022-12-11T05:49:38.366Z,87.71
2022-12-11T05:50:38.349Z,87.81
2022-12-11T05:51:38.356Z,87.81
2022-12-11T05:52:38.319Z,87.71
2022-12-11T05:53:38.335Z,87.60
2022-12-11T05:54:38.298Z,87.35
2022-12-11T05:55:38.294Z,87.35
2022-12-11T05:56:38.280Z,87.46
2022-12-11T05:57:38.267Z,87.25
2022-12-11T05:58:38.267Z,86.98
2022-12-11T05:59:38.245Z,86.52
2022-12-11T06:00:38.227Z,86.45
2022-12-11T06:01:38.271Z,86.14
2022-12-11T06:02:38.287Z,86.35
2022-12-11T06:03:38.216Z,86.60
2022-12-11T06:04:38.173Z,86.80
2022-12-11T06:05:38.167Z,87.01
2022-12-11T06:06:38.146Z,87.33
2022-12-11T06:07:38.135Z,87.64
2022-12-11T06:08:38.148Z,87.96
2022-12-11T06:09:38.105Z,88.12
2022-12-11T06:10:38.118Z,88.12
2022-12-11T06:11:38.105Z,88.02
2022-12-11T06:12:38.069Z,88.23
2022-12-11T06:13:38.101Z,88.23
2022-12-11T06:14:38.046Z,88.23
2022-12-11T06:15:38.037Z,88.23
2022-12-11T06:16:38.090Z,88.02
2022-12-11T06:17:38.044Z,87.81
2022-12-11T06:18:38.019Z,87.81
2022-12-11T06:19:37.985Z,88.02
2022-12-11T06:20:37.986Z,88.34
2022-12-11T06:21:38.013Z,88.34
2022-12-11T06:22:37.946Z,88.44
2022-12-11T06:23:37.955Z,88.34
2022-12-11T06:24:37.911Z,88.34
2022-12-11T06:25:37.916Z,88.23
2022-12-11T06:26:37.886Z,88.12
2022-12-11T06:27:37.884Z,87.98
2022-12-11T06:28:37.894Z,87.66
2022-12-11T06:29:37.853Z,87.50
2022-12-11T06:30:39.371Z,87.50
2022-12-11T06:31:37.890Z,87.71
2022-12-11T06:32:37.874Z,87.81
2022-12-11T06:33:37.823Z,87.81
2022-12-11T06:34:37.784Z,87.77
2022-12-11T06:35:42.090Z,87.98
2022-12-11T06:36:37.754Z,88.09
2022-12-11T06:37:37.782Z,87.77
2022-12-11T06:38:37.753Z,87.50
2022-12-11T06:39:37.737Z,87.50
2022-12-11T06:40:37.723Z,87.81
2022-12-11T06:41:37.719Z,88.02
2022-12-11T06:42:37.694Z,88.34
2022-12-11T06:43:37.692Z,88.34
2022-12-11T06:44:37.662Z,88.29
2022-12-11T06:45:37.708Z,88.19
2022-12-11T06:46:37.642Z,88.09
2022-12-11T06:47:37.653Z,87.88
2022-12-11T06:48:37.633Z,87.98
2022-12-11T06:49:37.595Z,87.98
2022-12-11T06:50:37.593Z,87.98
2022-12-11T06:51:37.583Z,87.88
2022-12-11T06:52:37.571Z,87.77
2022-12-11T06:53:37.561Z,87.66
2022-12-11T06:54:37.546Z,87.56
2022-12-11T06:55:37.526Z,87.46
2022-12-11T06:56:37.525Z,87.39
2022-12-11T06:57:37.502Z,87.29
2022-12-11T06:58:37.510Z,87.29
2022-12-11T06:59:37.492Z,87.18
2022-12-11T07:00:37.507Z,87.08
2022-12-11T07:01:37.443Z,87.08
2022-12-11T07:02:37.477Z,87.18
2022-12-11T07:03:37.442Z,87.39
2022-12-11T07:04:37.408Z,87.60
2022-12-11T07:05:37.393Z,87.81
2022-12-11T07:06:37.383Z,88.02
2022-12-11T07:07:37.374Z,88.23
2022-12-11T07:08:37.370Z,88.23
2022-12-11T07:09:37.341Z,88.34
2022-12-11T07:10:37.321Z,88.23
2022-12-11T07:11:37.369Z,88.12
2022-12-11T07:12:37.300Z,88.02
2022-12-11T07:13:37.310Z,87.98
2022-12-11T07:14:37.291Z,88.12
2022-12-11T07:15:40.473Z,88.23
2022-12-11T07:16:37.302Z,88.40
2022-12-11T07:17:37.269Z,88.50
2022-12-11T07:18:37.250Z,88.40
2022-12-11T07:19:37.210Z,88.19
2022-12-11T07:20:37.201Z,88.12
2022-12-11T07:21:37.201Z,88.12
2022-12-11T07:22:41.621Z,88.09
2022-12-11T07:23:38.210Z,88.12
2022-12-11T07:24:37.152Z,88.12
2022-12-11T07:25:37.145Z,88.12
2022-12-11T07:26:37.139Z,88.12
2022-12-11T07:27:37.110Z,88.02
2022-12-11T07:28:37.129Z,87.92
2022-12-11T07:29:37.081Z,87.81
2022-12-11T07:30:37.076Z,87.81
2022-12-11T07:31:37.135Z,87.92
2022-12-11T07:32:37.092Z,88.12
2022-12-11T07:33:37.096Z,88.23
2022-12-11T07:34:37.062Z,88.34
2022-12-11T07:35:37.024Z,88.34
2022-12-11T07:36:37.175Z,88.34
2022-12-11T07:37:37.254Z,88.19
2022-12-11T07:38:37.009Z,88.19
2022-12-11T07:39:36.959Z,88.19
2022-12-11T07:40:37.036Z,88.29
2022-12-11T07:41:36.961Z,88.29
2022-12-11T07:42:40.252Z,88.09
2022-12-11T07:43:37.998Z,88.09
2022-12-11T07:44:36.910Z,88.09
2022-12-11T07:45:36.991Z,88.19
2022-12-11T07:46:36.888Z,88.29
2022-12-11T07:47:36.870Z,88.50
2022-12-11T07:48:36.867Z,88.71
2022-12-11T07:49:36.829Z,88.71
2022-12-11T07:50:39.953Z,88.50
2022-12-11T07:51:36.888Z,88.40
2022-12-11T07:52:36.799Z,88.29
2022-12-11T07:53:36.779Z,88.29
2022-12-11T07:54:36.778Z,88.29
2022-12-11T07:55:36.768Z,88.29
2022-12-11T07:56:36.747Z,88.29
2022-12-11T07:57:36.725Z,88.29
2022-12-11T07:58:36.727Z,88.29
2022-12-11T07:59:36.728Z,88.40
2022-12-11T08:00:36.709Z,88.40
2022-12-11T08:01:36.830Z,88.40
2022-12-11T08:02:37.524Z,88.50
2022-12-11T08:03:36.648Z,88.61
2022-12-11T08:04:36.648Z,88.61
2022-12-11T08:05:36.644Z,88.50
2022-12-11T08:06:36.625Z,88.50
2022-12-11T08:07:36.607Z,88.71
2022-12-11T08:08:36.598Z,88.82
2022-12-11T08:09:36.578Z,88.71
2022-12-11T08:10:36.587Z,88.50
2022-12-11T08:11:38.384Z,88.09
2022-12-11T08:12:36.548Z,87.88
2022-12-11T08:13:36.544Z,87.66
2022-12-11T08:14:36.514Z,87.66
2022-12-11T08:15:36.516Z,87.77
2022-12-11T08:16:36.537Z,87.77
2022-12-11T08:17:40.026Z,87.88
2022-12-11T08:18:36.444Z,88.09
2022-12-11T08:19:36.444Z,88.40
2022-12-11T08:20:36.465Z,88.61
2022-12-11T08:21:36.447Z,88.50
2022-12-11T08:22:36.418Z,88.09
2022-12-11T08:23:36.394Z,87.66
2022-12-11T08:24:36.383Z,87.66
2022-12-11T08:25:36.487Z,87.66
2022-12-11T08:26:36.356Z,87.88
2022-12-11T08:27:36.345Z,88.09
2022-12-11T08:28:36.674Z,88.09
2022-12-11T08:29:37.222Z,88.09
2022-12-11T08:30:36.377Z,88.19
2022-12-11T08:31:36.296Z,88.19
2022-12-11T08:32:36.315Z,88.29
2022-12-11T08:33:36.256Z,88.50
2022-12-11T08:34:36.255Z,88.50
2022-12-11T08:35:36.276Z,88.40
2022-12-11T08:36:36.235Z,88.09
2022-12-11T08:37:36.214Z,87.88
2022-12-11T08:38:36.235Z,87.77
2022-12-11T08:39:36.184Z,87.66
2022-12-11T08:40:36.192Z,87.66
2022-12-11T08:41:36.193Z,87.88
2022-12-11T08:42:36.163Z,87.84
2022-12-11T08:43:36.131Z,87.77
2022-12-11T08:44:36.136Z,87.56
2022-12-11T08:45:36.209Z,87.56
2022-12-11T08:46:36.160Z,87.66
2022-12-11T08:47:36.094Z,87.88
2022-12-11T08:48:36.074Z,88.04
2022-12-11T08:49:36.055Z,88.26
2022-12-11T08:50:36.065Z,88.15
2022-12-11T08:51:36.033Z,88.15
2022-12-11T08:52:36.027Z,88.15
2022-12-11T08:53:36.004Z,87.94
2022-12-11T08:54:35.997Z,87.52
2022-12-11T08:55:35.991Z,87.63
2022-12-11T08:56:35.973Z,87.84
2022-12-11T08:57:35.952Z,88.04
2022-12-11T08:58:35.960Z,88.15
2022-12-11T08:59:35.922Z,88.15
2022-12-11T09:00:35.933Z,87.94
2022-12-11T09:01:35.993Z,87.73
2022-12-11T09:02:35.959Z,87.66
2022-12-11T09:03:35.874Z,87.66
2022-12-11T09:04:35.923Z,87.66
2022-12-11T09:05:35.852Z,87.77
2022-12-11T09:06:35.841Z,87.77
2022-12-11T09:07:35.822Z,87.88
2022-12-11T09:08:35.854Z,87.98
2022-12-11T09:09:35.892Z,87.98
2022-12-11T09:10:35.813Z,87.98
2022-12-11T09:11:35.773Z,88.19
2022-12-11T09:12:35.761Z,88.40
2022-12-11T09:13:35.751Z,88.61
2022-12-11T09:14:35.742Z,88.71
2022-12-11T09:15:35.801Z,88.71
2022-12-11T09:16:35.722Z,88.82
2022-12-11T09:17:35.713Z,88.67
2022-12-11T09:18:35.682Z,88.57
2022-12-11T09:19:35.671Z,88.67
2022-12-11T09:20:35.704Z,88.78
2022-12-11T09:21:35.649Z,88.78
2022-12-11T09:22:35.631Z,88.67
2022-12-11T09:23:35.610Z,88.67
2022-12-11T09:24:35.611Z,88.67
2022-12-11T09:25:35.611Z,88.64
2022-12-11T09:26:35.585Z,88.74
2022-12-11T09:27:35.571Z,88.42
2022-12-11T09:28:35.554Z,87.90
2022-12-11T09:29:35.548Z,87.80
2022-12-11T09:30:35.593Z,87.90
2022-12-11T09:31:35.532Z,88.11
2022-12-11T09:32:35.523Z,88.21
2022-12-11T09:33:35.506Z,88.21
2022-12-11T09:34:35.488Z,88.11
2022-12-11T09:35:35.481Z,88.11
2022-12-11T09:36:35.517Z,88.21
2022-12-11T09:37:35.430Z,88.11
2022-12-11T09:38:35.428Z,88.01
2022-12-11T09:39:35.429Z,87.90
2022-12-11T09:40:35.433Z,87.90
2022-12-11T09:41:35.392Z,88.01
2022-12-11T09:42:35.400Z,87.90
2022-12-11T09:43:35.359Z,87.80
2022-12-11T09:44:35.354Z,87.69
2022-12-11T09:45:35.349Z,87.69
2022-12-11T09:46:35.374Z,87.80
2022-12-11T09:47:35.324Z,87.80
2022-12-11T09:48:35.289Z,87.80
2022-12-11T09:49:35.298Z,87.80
2022-12-11T09:50:35.330Z,87.69
2022-12-11T09:51:35.295Z,87.59
2022-12-11T09:52:35.259Z,87.48
2022-12-11T09:53:35.239Z,87.59
2022-12-11T09:54:35.220Z,87.59
2022-12-11T09:55:35.220Z,87.59
2022-12-11T09:56:35.193Z,87.48
2022-12-11T09:57:35.158Z,87.59
2022-12-11T09:58:35.166Z,87.69
2022-12-11T09:59:35.149Z,87.69
2022-12-11T10:00:35.146Z,87.48
2022-12-11T10:01:35.196Z,87.38
2022-12-11T10:02:35.208Z,87.27
2022-12-11T10:03:35.128Z,87.17
2022-12-11T10:04:35.385Z,87.07
2022-12-11T10:05:35.170Z,87.07
2022-12-11T10:06:35.068Z,87.27
2022-12-11T10:07:35.067Z,87.45
2022-12-11T10:08:35.049Z,87.34
2022-12-11T10:09:35.025Z,86.96
2022-12-11T10:10:35.041Z,86.75
2022-12-11T10:11:34.998Z,86.75
2022-12-11T10:12:35.131Z,86.96
2022-12-11T10:13:35.104Z,87.17
2022-12-11T10:14:35.332Z,87.59
2022-12-11T10:15:35.562Z,87.80
2022-12-11T10:16:34.985Z,88.01
2022-12-11T10:17:35.237Z,88.01
2022-12-11T10:18:35.152Z,87.90
2022-12-11T10:19:35.078Z,87.59
2022-12-11T10:20:34.908Z,87.48
2022-12-11T10:21:34.865Z,87.59
2022-12-11T10:22:34.870Z,87.69
2022-12-11T10:23:35.585Z,87.80
2022-12-11T10:25:09.616Z,88.11
2022-12-11T10:25:35.828Z,88.17
2022-12-11T10:26:34.806Z,88.28
2022-12-11T10:27:34.809Z,88.07
2022-12-11T10:28:34.875Z,88.07
2022-12-11T10:29:34.747Z,93.21
2022-12-11T10:30:34.854Z,91.37
2022-12-11T10:31:34.815Z,89.70
2022-12-11T10:32:34.744Z,88.55
2022-12-11T10:33:34.717Z,87.93
2022-12-11T10:34:34.715Z,87.61
2022-12-11T10:35:34.735Z,87.40
2022-12-11T10:36:34.686Z,87.09
2022-12-11T10:37:34.674Z,86.77
2022-12-11T10:38:34.650Z,86.67
2022-12-11T10:39:34.655Z,86.88
2022-12-11T10:40:34.623Z,87.09
2022-12-11T10:41:34.636Z,87.19
2022-12-11T10:42:34.595Z,87.30
2022-12-11T10:43:34.600Z,87.40
2022-12-11T10:44:34.556Z,87.40
2022-12-11T10:45:34.565Z,87.40
2022-12-11T10:46:34.629Z,87.40
2022-12-11T10:47:34.532Z,87.40
2022-12-11T10:48:34.555Z,87.51
2022-12-11T10:49:34.514Z,87.40
2022-12-11T10:50:34.486Z,87.19
2022-12-11T10:51:34.574Z,87.19
2022-12-11T10:52:35.054Z,87.30
2022-12-11T10:53:36.292Z,87.40
2022-12-11T10:54:34.435Z,87.51
2022-12-11T10:55:34.435Z,87.51
2022-12-11T10:56:34.433Z,87.61
2022-12-11T10:57:34.407Z,87.51
2022-12-11T10:58:34.673Z,87.51
2022-12-11T10:59:34.385Z,87.40
2022-12-11T11:00:34.372Z,87.30
2022-12-11T11:01:34.472Z,87.51
2022-12-11T11:02:34.435Z,87.61
2022-12-11T11:03:34.436Z,87.51
2022-12-11T11:04:34.325Z,87.51
2022-12-11T11:05:34.286Z,87.30
2022-12-11T11:06:34.294Z,87.19
2022-12-11T11:07:34.293Z,87.19
2022-12-11T11:08:34.255Z,87.19
2022-12-11T11:09:34.264Z,87.30
2022-12-11T11:10:34.254Z,87.40
2022-12-11T11:11:34.533Z,87.40
2022-12-11T11:12:34.212Z,87.51
2022-12-11T11:13:34.223Z,87.61
2022-12-11T11:14:34.174Z,87.61
2022-12-11T11:15:34.175Z,87.61
2022-12-11T11:16:34.211Z,87.55
2022-12-11T11:17:35.461Z,87.55
2022-12-11T11:18:34.142Z,87.65
2022-12-11T11:19:34.128Z,87.76
2022-12-11T11:20:34.115Z,87.86
2022-12-11T11:21:34.182Z,87.86
2022-12-11T11:22:34.083Z,87.86
2022-12-11T11:23:34.082Z,87.82
2022-12-11T11:24:34.518Z,87.71
2022-12-11T11:25:34.082Z,87.65
2022-12-11T11:27:04.375Z,87.45
2022-12-11T11:27:35.042Z,87.45
2022-12-11T11:28:34.013Z,87.55
2022-12-11T11:29:34.007Z,87.65
2022-12-11T11:30:33.982Z,87.45
2022-12-11T11:31:34.047Z,87.45
2022-12-11T11:32:33.980Z,87.55
2022-12-11T11:33:33.942Z,87.55
2022-12-11T11:34:33.944Z,87.51
2022-12-11T11:35:33.925Z,87.40
2022-12-11T11:36:33.882Z,87.51
2022-12-11T11:37:33.948Z,87.51
2022-12-11T11:38:33.886Z,87.40
2022-12-11T11:39:33.872Z,87.40
2022-12-11T11:40:33.863Z,87.30
2022-12-11T11:41:33.852Z,87.09
2022-12-11T11:42:33.852Z,86.99
2022-12-11T11:43:33.821Z,86.99
2022-12-11T11:44:33.795Z,90.08
2022-12-11T11:45:33.798Z,89.34
2022-12-11T11:46:33.785Z,88.09
2022-12-11T11:47:33.791Z,87.40
2022-12-11T11:48:33.751Z,86.99
2022-12-11T11:49:33.748Z,86.88
2022-12-11T11:50:33.726Z,86.77
2022-12-11T11:51:33.732Z,89.34
2022-12-11T11:52:33.724Z,88.41
2022-12-11T11:53:33.692Z,87.57
2022-12-11T11:54:33.669Z,86.94
2022-12-11T11:55:33.669Z,86.63
2022-12-11T11:56:33.658Z,86.63
2022-12-11T11:57:33.654Z,86.53
2022-12-11T11:58:33.642Z,86.32
2022-12-11T11:59:33.611Z,86.15
2022-12-11T12:00:34.257Z,86.00
2022-12-11T12:01:33.612Z,86.15
2022-12-11T12:02:33.734Z,86.25
2022-12-11T12:03:33.581Z,89.24
2022-12-11T12:04:33.551Z,93.16
2022-12-11T12:05:33.537Z,91.71
2022-12-11T12:06:33.520Z,89.83
2022-12-11T12:07:33.530Z,88.06
2022-12-11T12:08:33.502Z,86.91
2022-12-11T12:09:33.554Z,86.28
2022-12-11T12:10:33.471Z,85.80
2022-12-11T12:11:33.471Z,85.69
2022-12-11T12:12:34.235Z,85.49
2022-12-11T12:13:50.156Z,85.49
2022-12-11T12:15:04.352Z,85.59
2022-12-11T12:15:34.408Z,85.80
2022-12-11T12:17:34.436Z,85.90
2022-12-11T12:18:33.373Z,86.00
2022-12-11T12:19:33.349Z,86.00
2022-12-11T12:20:33.371Z,86.00
2022-12-11T12:21:33.810Z,85.94
2022-12-11T12:22:33.328Z,86.05
2022-12-11T12:23:36.957Z,86.25
2022-12-11T12:24:33.516Z,86.36
2022-12-11T12:25:33.290Z,86.25
2022-12-11T12:26:33.262Z,86.36
2022-12-11T12:28:34.474Z,86.15
2022-12-11T12:29:33.238Z,86.25
2022-12-11T12:30:33.218Z,86.25
2022-12-11T12:31:33.315Z,86.36
2022-12-11T12:32:33.248Z,86.36
2022-12-11T12:33:33.375Z,86.46
2022-12-11T12:34:40.310Z,86.46
2022-12-11T12:35:33.162Z,86.57
2022-12-11T12:36:33.142Z,86.67
2022-12-11T12:37:33.134Z,86.67
2022-12-11T12:38:33.134Z,86.74
2022-12-11T12:39:33.110Z,86.84
2022-12-11T12:40:33.092Z,86.84
2022-12-11T12:41:33.072Z,86.84
2022-12-11T12:42:33.062Z,86.53
2022-12-11T12:43:33.155Z,86.11
2022-12-11T12:44:33.066Z,85.90
2022-12-11T12:45:33.077Z,85.59
2022-12-11T12:46:33.012Z,85.52
2022-12-11T12:47:33.004Z,85.83
2022-12-11T12:48:33.009Z,86.25
2022-12-11T12:49:32.971Z,86.67
2022-12-11T12:50:32.961Z,86.36
2022-12-11T12:51:32.952Z,85.73
2022-12-11T12:52:32.937Z,85.63
2022-12-11T12:53:32.932Z,85.73
2022-12-11T12:54:32.922Z,86.15